Portada
METAR-TAF:

METAR-TAF

Aeroports :

Merrill, Wisconsin, Estats Units d'Amèrica

Merrill Municipal Airport

latitud: 45-11N, longitud: 089-42W, altitud: 401 m

Observació

L'informe es va fer fa 17 minuts, a les 21:35 UTC
Vent 6 kt del Sud/Sud-Est
Temperatura 16°C
Humitat 27%
Pressió 1026 hPa
Visibilitat: 16.1 km

METAR: KRRL 222135Z AUTO 15006KT 10SM 16/M03 A3030 RMK AO2 T01561034

Hora: 16:52 (21:52 UTC)


TAF: manca

Observacions i pronòstics meteorològics de més de 4000 aeroports (METAR i TAF).

Les estacions disponibles són els punts grocs i vermells al mapa.

Posi el ratolí al punt desitjat per veure el nom de l'estació.

Feu clic per veure les observacions i els pronòstics meteorològics.

Per canviar el mapa: feu clic els botons verds amb una creu de color negre per apropar; al botó verd amb un guió per allunyar la imatge; o en les fletxes verdes per a mapes adjacents.


METAR-TAF: